Terminal Aerodrome Forecast
Issued by NWS Melbourne, FL

Home | Current Version | Previous Version | Text Only | Print | Product List | Glossary On
Versions: 1 2 3 4 5 6 7 8 9 10 11 12 13 14 15 16 17 18 19 20 21 22 23 24 25
000
FTUS42 KMLB 232341
TAFMCO
TAF
KMCO 232341Z 2400/2506 20006KT P6SM VCSH BKN015
     FM240200 35005KT 6SM BR BKN009 OVC020
     FM240700 33004KT 4SM BR BKN004 OVC010
     FM241500 36007KT P6SM BKN015
     FM241800 01010KT P6SM VCSH BKN025 OVC060
     FM242200 36010KT P6SM BKN040=

USA.gov is the U.S. government's official web portal to all federal, state and local government web resources and services.